sensor_id;sensor_type;location;lat;lon;timestamp;pressure;altitude;pressure_sealevel;temperature;humidity
12666;BME280;58531;59.050;17.416;2023-03-23T00:01:00;98894.94;;;4.70;100.00
12666;BME280;58531;59.050;17.416;2023-03-23T00:03:27;98895.06;;;4.66;100.00
12666;BME280;58531;59.050;17.416;2023-03-23T00:05:59;98902.25;;;4.57;100.00
12666;BME280;58531;59.050;17.416;2023-03-23T00:08:30;98898.56;;;4.55;100.00
12666;BME280;58531;59.050;17.416;2023-03-23T00:10:57;98901.03;;;4.49;100.00
12666;BME280;58531;59.050;17.416;2023-03-23T00:13:28;98900.59;;;4.51;100.00
12666;BME280;58531;59.050;17.416;2023-03-23T00:15:55;98900.13;;;4.43;100.00
12666;BME280;58531;59.050;17.416;2023-03-23T00:18:24;98899.69;;;4.45;100.00
12666;BME280;58531;59.050;17.416;2023-03-23T00:20:52;98894.41;;;4.45;100.00
12666;BME280;58531;59.050;17.416;2023-03-23T00:23:23;98905.72;;;4.45;100.00
12666;BME280;58531;59.050;17.416;2023-03-23T00:25:52;98905.41;;;4.43;100.00
12666;BME280;58531;59.050;17.416;2023-03-23T00:28:22;98904.81;;;4.39;100.00
12666;BME280;58531;59.050;17.416;2023-03-23T00:30:54;98905.13;;;4.41;100.00
12666;BME280;58531;59.050;17.416;2023-03-23T00:33:22;98914.06;;;4.44;100.00
12666;BME280;58531;59.050;17.416;2023-03-23T00:35:49;98908.47;;;4.42;100.00
12666;BME280;58531;59.050;17.416;2023-03-23T00:38:18;98915.69;;;4.41;100.00
12666;BME280;58531;59.050;17.416;2023-03-23T00:40:46;98904.19;;;4.35;100.00
12666;BME280;58531;59.050;17.416;2023-03-23T00:43:14;98907.00;;;4.32;100.00
12666;BME280;58531;59.050;17.416;2023-03-23T00:45:42;98905.38;;;4.34;100.00
12666;BME280;58531;59.050;17.416;2023-03-23T00:48:10;98912.00;;;4.39;100.00
12666;BME280;58531;59.050;17.416;2023-03-23T00:50:37;98910.22;;;4.36;100.00
12666;BME280;58531;59.050;17.416;2023-03-23T00:53:04;98904.19;;;4.35;100.00
12666;BME280;58531;59.050;17.416;2023-03-23T00:55:31;98902.44;;;4.32;100.00
12666;BME280;58531;59.050;17.416;2023-03-23T00:58:00;98896.13;;;4.30;100.00
12666;BME280;58531;59.050;17.416;2023-03-23T01:00:27;98897.84;;;4.24;100.00
12666;BME280;58531;59.050;17.416;2023-03-23T01:02:54;98898.16;;;4.26;100.00
12666;BME280;58531;59.050;17.416;2023-03-23T01:05:21;98901.41;;;4.30;100.00
12666;BME280;58531;59.050;17.416;2023-03-23T01:07:48;98898.25;;;4.22;100.00
12666;BME280;58531;59.050;17.416;2023-03-23T01:10:15;98903.19;;;4.11;100.00
12666;BME280;58531;59.050;17.416;2023-03-23T01:12:44;98910.63;;;4.04;100.00
12666;BME280;58531;59.050;17.416;2023-03-23T01:15:18;98916.72;;;3.92;100.00
12666;BME280;58531;59.050;17.416;2023-03-23T01:17:46;98916.38;;;3.81;100.00
12666;BME280;58531;59.050;17.416;2023-03-23T01:20:14;98913.66;;;3.72;100.00
12666;BME280;58531;59.050;17.416;2023-03-23T01:22:42;98916.53;;;3.65;100.00
12666;BME280;58531;59.050;17.416;2023-03-23T01:25:10;98926.66;;;3.66;100.00
12666;BME280;58531;59.050;17.416;2023-03-23T01:27:38;98922.53;;;3.65;100.00
12666;BME280;58531;59.050;17.416;2023-03-23T01:30:07;98916.84;;;3.67;100.00
12666;BME280;58531;59.050;17.416;2023-03-23T01:32:38;98922.75;;;3.71;100.00
12666;BME280;58531;59.050;17.416;2023-03-23T01:35:05;98923.72;;;3.64;100.00
12666;BME280;58531;59.050;17.416;2023-03-23T01:37:32;98923.44;;;3.50;100.00
12666;BME280;58531;59.050;17.416;2023-03-23T01:40:01;98917.06;;;3.39;100.00
12666;BME280;58531;59.050;17.416;2023-03-23T01:42:31;98924.16;;;3.29;100.00
12666;BME280;58531;59.050;17.416;2023-03-23T01:45:22;98931.38;;;3.16;100.00
12666;BME280;58531;59.050;17.416;2023-03-23T01:47:56;98930.41;;;3.10;100.00
12666;BME280;58531;59.050;17.416;2023-03-23T01:50:25;98929.97;;;3.12;100.00
12666;BME280;58531;59.050;17.416;2023-03-23T01:52:54;98921.03;;;3.09;100.00
12666;BME280;58531;59.050;17.416;2023-03-23T01:55:25;98911.78;;;3.05;100.00
12666;BME280;58531;59.050;17.416;2023-03-23T01:57:54;98913.16;;;2.97;100.00
12666;BME280;58531;59.050;17.416;2023-03-23T02:00:22;98914.09;;;2.90;100.00
12666;BME280;58531;59.050;17.416;2023-03-23T02:02:52;98916.34;;;2.79;100.00
12666;BME280;58531;59.050;17.416;2023-03-23T02:05:24;98917.91;;;2.64;100.00
12666;BME280;58531;59.050;17.416;2023-03-23T02:07:54;98925.06;;;2.51;100.00
12666;BME280;58531;59.050;17.416;2023-03-23T02:10:21;98919.94;;;2.48;100.00
12666;BME280;58531;59.050;17.416;2023-03-23T02:12:47;98927.59;;;2.42;100.00
12666;BME280;58531;59.050;17.416;2023-03-23T02:15:15;98917.38;;;2.32;100.00
12666;BME280;58531;59.050;17.416;2023-03-23T02:17:45;98911.28;;;2.35;100.00
12666;BME280;58531;59.050;17.416;2023-03-23T02:20:30;98919.56;;;2.33;100.00
12666;BME280;58531;59.050;17.416;2023-03-23T02:23:23;98926.31;;;2.34;100.00
12666;BME280;58531;59.050;17.416;2023-03-23T02:26:05;98925.38;;;2.29;100.00
12666;BME280;58531;59.050;17.416;2023-03-23T02:31:45;98913.97;;;2.19;100.00
12666;BME280;58531;59.050;17.416;2023-03-23T02:34:17;98916.41;;;2.14;100.00
12666;BME280;58531;59.050;17.416;2023-03-23T02:36:48;98909.84;;;2.06;100.00
12666;BME280;58531;59.050;17.416;2023-03-23T02:39:20;98908.69;;;1.94;100.00
12666;BME280;58531;59.050;17.416;2023-03-23T02:41:52;98910.31;;;1.76;100.00
12666;BME280;58531;59.050;17.416;2023-03-23T02:44:22;98911.00;;;1.64;100.00
12666;BME280;58531;59.050;17.416;2023-03-23T02:46:51;98905.00;;;1.63;100.00
12666;BME280;58531;59.050;17.416;2023-03-23T02:49:21;98906.84;;;1.50;100.00
12666;BME280;58531;59.050;17.416;2023-03-23T02:51:50;98915.16;;;1.49;100.00
12666;BME280;58531;59.050;17.416;2023-03-23T02:54:18;98922.09;;;1.55;100.00
12666;BME280;58531;59.050;17.416;2023-03-23T02:56:48;98922.34;;;1.61;100.00
12666;BME280;58531;59.050;17.416;2023-03-23T02:59:17;98930.94;;;1.77;100.00
12666;BME280;58531;59.050;17.416;2023-03-23T03:02:01;98939.81;;;1.83;100.00
12666;BME280;58531;59.050;17.416;2023-03-23T03:04:33;98932.75;;;1.80;100.00
12666;BME280;58531;59.050;17.416;2023-03-23T03:10:07;98929.47;;;1.76;100.00
12666;BME280;58531;59.050;17.416;2023-03-23T03:12:44;98929.09;;;1.90;100.00
12666;BME280;58531;59.050;17.416;2023-03-23T03:15:19;98931.47;;;1.85;100.00
12666;BME280;58531;59.050;17.416;2023-03-23T03:17:54;98934.72;;;1.76;100.00
12666;BME280;58531;59.050;17.416;2023-03-23T03:20:24;98938.78;;;1.65;100.00
12666;BME280;58531;59.050;17.416;2023-03-23T03:22:55;98939.78;;;1.55;100.00
12666;BME280;58531;59.050;17.416;2023-03-23T03:25:23;98934.00;;;1.47;100.00
12666;BME280;58531;59.050;17.416;2023-03-23T03:27:53;98935.53;;;1.45;100.00
12666;BME280;58531;59.050;17.416;2023-03-23T03:30:25;98939.66;;;1.46;100.00
12666;BME280;58531;59.050;17.416;2023-03-23T03:32:53;98930.78;;;1.40;100.00
12666;BME280;58531;59.050;17.416;2023-03-23T03:35:23;98928.75;;;1.31;100.00
12666;BME280;58531;59.050;17.416;2023-03-23T03:37:50;98930.13;;;1.36;100.00
12666;BME280;58531;59.050;17.416;2023-03-23T03:40:20;98928.66;;;1.35;100.00
12666;BME280;58531;59.050;17.416;2023-03-23T03:42:48;98926.00;;;1.35;100.00
12666;BME280;58531;59.050;17.416;2023-03-23T03:45:16;98918.28;;;1.44;100.00
12666;BME280;58531;59.050;17.416;2023-03-23T03:47:43;98917.75;;;1.65;100.00
12666;BME280;58531;59.050;17.416;2023-03-23T03:50:10;98908.44;;;1.89;100.00
12666;BME280;58531;59.050;17.416;2023-03-23T03:52:39;98917.91;;;1.86;100.00
12666;BME280;58531;59.050;17.416;2023-03-23T03:55:07;98928.91;;;1.69;100.00
12666;BME280;58531;59.050;17.416;2023-03-23T03:57:35;98924.66;;;1.59;100.00
12666;BME280;58531;59.050;17.416;2023-03-23T04:00:03;98920.19;;;1.72;100.00
12666;BME280;58531;59.050;17.416;2023-03-23T04:02:39;98926.28;;;1.69;100.00
12666;BME280;58531;59.050;17.416;2023-03-23T04:05:06;98917.47;;;1.75;100.00
12666;BME280;58531;59.050;17.416;2023-03-23T04:07:34;98930.09;;;1.80;100.00
12666;BME280;58531;59.050;17.416;2023-03-23T04:10:06;98917.16;;;1.86;100.00
12666;BME280;58531;59.050;17.416;2023-03-23T04:12:33;98909.41;;;1.95;100.00
12666;BME280;58531;59.050;17.416;2023-03-23T04:15:01;98916.78;;;2.00;100.00
12666;BME280;58531;59.050;17.416;2023-03-23T04:17:28;98911.59;;;1.84;100.00
12666;BME280;58531;59.050;17.416;2023-03-23T04:19:55;98926.69;;;1.67;100.00
12666;BME280;58531;59.050;17.416;2023-03-23T04:22:23;98920.59;;;1.70;100.00
12666;BME280;58531;59.050;17.416;2023-03-23T04:24:57;98918.41;;;1.69;100.00
12666;BME280;58531;59.050;17.416;2023-03-23T04:27:27;98910.19;;;1.67;100.00
12666;BME280;58531;59.050;17.416;2023-03-23T04:29:55;98915.97;;;1.74;100.00
12666;BME280;58531;59.050;17.416;2023-03-23T04:32:24;98908.88;;;1.87;100.00
12666;BME280;58531;59.050;17.416;2023-03-23T04:34:54;98911.91;;;1.86;100.00
12666;BME280;58531;59.050;17.416;2023-03-23T04:37:21;98919.59;;;1.80;100.00
12666;BME280;58531;59.050;17.416;2023-03-23T04:39:51;98909.41;;;1.95;100.00
12666;BME280;58531;59.050;17.416;2023-03-23T04:42:28;98918.66;;;1.87;100.00
12666;BME280;58531;59.050;17.416;2023-03-23T04:44:55;98918.53;;;1.78;100.00
12666;BME280;58531;59.050;17.416;2023-03-23T04:47:23;98927.00;;;1.69;100.00
12666;BME280;58531;59.050;17.416;2023-03-23T04:49:54;98925.66;;;1.49;100.00
12666;BME280;58531;59.050;17.416;2023-03-23T04:52:21;98925.66;;;1.49;100.00
12666;BME280;58531;59.050;17.416;2023-03-23T04:54:50;98920.72;;;1.51;100.00
12666;BME280;58531;59.050;17.416;2023-03-23T04:57:18;98919.91;;;1.54;100.00
12666;BME280;58531;59.050;17.416;2023-03-23T04:59:47;98915.69;;;1.56;100.00
12666;BME280;58531;59.050;17.416;2023-03-23T05:02:16;98917.94;;;1.58;100.00
12666;BME280;58531;59.050;17.416;2023-03-23T05:04:42;98920.88;;;1.60;100.00
12666;BME280;58531;59.050;17.416;2023-03-23T05:07:10;98919.72;;;1.61;100.00
12666;BME280;58531;59.050;17.416;2023-03-23T05:09:37;98913.22;;;1.65;100.00
12666;BME280;58531;59.050;17.416;2023-03-23T05:12:05;98920.78;;;1.63;100.00
12666;BME280;58531;59.050;17.416;2023-03-23T05:14:32;98911.66;;;1.68;100.00
12666;BME280;58531;59.050;17.416;2023-03-23T05:17:00;98913.22;;;1.65;100.00
12666;BME280;58531;59.050;17.416;2023-03-23T05:19:27;98913.88;;;1.82;100.00
12666;BME280;58531;59.050;17.416;2023-03-23T05:21:56;98918.38;;;1.97;100.00
12666;BME280;58531;59.050;17.416;2023-03-23T05:24:29;98918.28;;;2.01;100.00
12666;BME280;58531;59.050;17.416;2023-03-23T05:26:58;98922.19;;;2.09;100.00
12666;BME280;58531;59.050;17.416;2023-03-23T05:29:25;98929.44;;;2.05;100.00
12666;BME280;58531;59.050;17.416;2023-03-23T05:31:52;98938.13;;;2.18;100.00
12666;BME280;58531;59.050;17.416;2023-03-23T05:34:22;98940.88;;;2.27;100.00
12666;BME280;58531;59.050;17.416;2023-03-23T05:36:52;98944.56;;;2.41;100.00
12666;BME280;58531;59.050;17.416;2023-03-23T05:39:20;98946.06;;;2.55;100.00
12666;BME280;58531;59.050;17.416;2023-03-23T05:41:48;98952.38;;;2.57;100.00
12666;BME280;58531;59.050;17.416;2023-03-23T05:44:14;98947.31;;;2.63;100.00
12666;BME280;58531;59.050;17.416;2023-03-23T05:46:41;98945.94;;;2.96;100.00
12666;BME280;58531;59.050;17.416;2023-03-23T05:49:08;98944.81;;;3.64;100.00
12666;BME280;58531;59.050;17.416;2023-03-23T05:51:36;98943.19;;;4.53;100.00
12666;BME280;58531;59.050;17.416;2023-03-23T05:54:04;98949.31;;;5.37;100.00
12666;BME280;58531;59.050;17.416;2023-03-23T05:56:31;98943.47;;;5.96;98.58
12666;BME280;58531;59.050;17.416;2023-03-23T05:58:58;98948.44;;;7.50;100.00
12666;BME280;58531;59.050;17.416;2023-03-23T06:01:26;98947.19;;;8.56;85.90
12666;BME280;58531;59.050;17.416;2023-03-23T06:03:57;98934.19;;;8.92;83.87
12666;BME280;58531;59.050;17.416;2023-03-23T06:06:25;98948.59;;;9.60;78.02
12666;BME280;58531;59.050;17.416;2023-03-23T06:08:55;98952.75;;;10.06;79.65
12666;BME280;58531;59.050;17.416;2023-03-23T06:11:22;98941.00;;;9.53;78.87
12666;BME280;58531;59.050;17.416;2023-03-23T06:13:49;98954.56;;;9.75;73.36
12666;BME280;58531;59.050;17.416;2023-03-23T06:16:16;98972.66;;;9.65;73.42
12666;BME280;58531;59.050;17.416;2023-03-23T06:18:44;98970.53;;;10.40;68.88
12666;BME280;58531;59.050;17.416;2023-03-23T06:21:12;98964.91;;;9.67;71.14
12666;BME280;58531;59.050;17.416;2023-03-23T06:23:39;98960.38;;;9.73;71.03
12666;BME280;58531;59.050;17.416;2023-03-23T06:26:08;98963.78;;;8.80;71.91
12666;BME280;58531;59.050;17.416;2023-03-23T06:28:35;98971.13;;;8.56;73.88
12666;BME280;58531;59.050;17.416;2023-03-23T06:31:03;98963.38;;;8.00;75.27
12666;BME280;58531;59.050;17.416;2023-03-23T06:33:31;98976.38;;;8.36;75.21
12666;BME280;58531;59.050;17.416;2023-03-23T06:35:59;98977.53;;;9.13;72.74
12666;BME280;58531;59.050;17.416;2023-03-23T06:38:26;98979.66;;;9.63;69.49
12666;BME280;58531;59.050;17.416;2023-03-23T06:40:55;98976.47;;;10.55;66.04
12666;BME280;58531;59.050;17.416;2023-03-23T06:43:24;98984.25;;;11.31;63.60
12666;BME280;58531;59.050;17.416;2023-03-23T06:45:51;98979.38;;;11.66;62.16
12666;BME280;58531;59.050;17.416;2023-03-23T06:48:18;98983.09;;;12.01;58.74
12666;BME280;58531;59.050;17.416;2023-03-23T06:50:45;98985.84;;;13.05;55.98
12666;BME280;58531;59.050;17.416;2023-03-23T06:53:13;98982.69;;;12.63;56.21
12666;BME280;58531;59.050;17.416;2023-03-23T06:55:42;98980.28;;;12.93;55.50
12666;BME280;58531;59.050;17.416;2023-03-23T06:58:09;98977.59;;;12.71;56.44
12666;BME280;58531;59.050;17.416;2023-03-23T07:00:38;98978.31;;;12.98;53.65
12666;BME280;58531;59.050;17.416;2023-03-23T07:03:05;98990.72;;;12.41;56.97
12666;BME280;58531;59.050;17.416;2023-03-23T07:05:32;98985.59;;;12.54;56.00
12666;BME280;58531;59.050;17.416;2023-03-23T07:08:00;98993.41;;;12.58;56.42
12666;BME280;58531;59.050;17.416;2023-03-23T07:10:27;98991.22;;;12.51;55.42
12666;BME280;58531;59.050;17.416;2023-03-23T07:12:57;98987.13;;;11.64;57.34
12666;BME280;58531;59.050;17.416;2023-03-23T07:15:24;98986.56;;;12.29;56.16
12666;BME280;58531;59.050;17.416;2023-03-23T07:17:54;98996.84;;;12.97;54.92
12666;BME280;58531;59.050;17.416;2023-03-23T07:20:21;99005.56;;;13.19;53.47
12666;BME280;58531;59.050;17.416;2023-03-23T07:22:47;99010.00;;;12.95;54.31
12666;BME280;58531;59.050;17.416;2023-03-23T07:25:15;99009.47;;;13.07;53.44
12666;BME280;58531;59.050;17.416;2023-03-23T07:27:44;99009.91;;;13.44;52.53
12666;BME280;58531;59.050;17.416;2023-03-23T07:30:12;99013.88;;;12.44;55.13
12666;BME280;58531;59.050;17.416;2023-03-23T07:32:39;99010.72;;;12.95;54.00
12666;BME280;58531;59.050;17.416;2023-03-23T07:35:08;99005.78;;;11.53;58.19
12666;BME280;58531;59.050;17.416;2023-03-23T07:37:36;99007.38;;;10.36;63.17
12666;BME280;58531;59.050;17.416;2023-03-23T07:40:03;98996.09;;;9.41;66.55
12666;BME280;58531;59.050;17.416;2023-03-23T07:42:41;99004.91;;;9.13;69.48
12666;BME280;58531;59.050;17.416;2023-03-23T07:45:09;99008.09;;;8.68;72.30
12666;BME280;58531;59.050;17.416;2023-03-23T07:47:36;99010.97;;;8.50;72.95
12666;BME280;58531;59.050;17.416;2023-03-23T07:50:04;99006.91;;;8.26;74.30
12666;BME280;58531;59.050;17.416;2023-03-23T07:52:34;99006.13;;;8.11;74.60
12666;BME280;58531;59.050;17.416;2023-03-23T07:55:02;98998.78;;;8.06;76.39
12666;BME280;58531;59.050;17.416;2023-03-23T07:57:30;99005.13;;;8.09;77.18
12666;BME280;58531;59.050;17.416;2023-03-23T07:59:58;99009.25;;;8.10;76.19
12666;BME280;58531;59.050;17.416;2023-03-23T08:02:25;99004.53;;;8.28;76.87
12666;BME280;58531;59.050;17.416;2023-03-23T08:04:53;99006.56;;;8.47;78.40
12666;BME280;58531;59.050;17.416;2023-03-23T08:07:22;99003.34;;;8.58;75.37
12666;BME280;58531;59.050;17.416;2023-03-23T08:09:50;99009.13;;;8.56;74.33
12666;BME280;58531;59.050;17.416;2023-03-23T08:12:17;99009.66;;;8.46;74.70
12666;BME280;58531;59.050;17.416;2023-03-23T08:14:44;99006.00;;;8.58;76.53
12666;BME280;58531;59.050;17.416;2023-03-23T08:17:13;99006.81;;;8.78;74.96
12666;BME280;58531;59.050;17.416;2023-03-23T08:19:40;99007.19;;;8.86;75.54
12666;BME280;58531;59.050;17.416;2023-03-23T08:22:08;98999.38;;;8.82;75.21
12666;BME280;58531;59.050;17.416;2023-03-23T08:24:35;99009.28;;;8.82;74.90
12666;BME280;58531;59.050;17.416;2023-03-23T08:27:03;99004.25;;;8.84;75.98
12666;BME280;58531;59.050;17.416;2023-03-23T08:29:32;99005.50;;;8.88;76.79
12666;BME280;58531;59.050;17.416;2023-03-23T08:31:59;99007.06;;;8.80;74.79
12666;BME280;58531;59.050;17.416;2023-03-23T08:34:28;99009.84;;;8.86;76.36
12666;BME280;58531;59.050;17.416;2023-03-23T08:36:56;99009.63;;;8.89;76.61
12666;BME280;58531;59.050;17.416;2023-03-23T08:39:23;99013.50;;;8.88;75.62
12666;BME280;58531;59.050;17.416;2023-03-23T08:41:50;99020.63;;;8.97;74.81
12666;BME280;58531;59.050;17.416;2023-03-23T08:44:18;99019.53;;;9.03;76.09
12666;BME280;58531;59.050;17.416;2023-03-23T08:46:45;99013.84;;;9.10;77.42
12666;BME280;58531;59.050;17.416;2023-03-23T08:49:12;99014.28;;;9.09;78.09
12666;BME280;58531;59.050;17.416;2023-03-23T08:51:39;99018.78;;;9.03;75.87
12666;BME280;58531;59.050;17.416;2023-03-23T08:54:07;99016.81;;;8.83;74.69
12666;BME280;58531;59.050;17.416;2023-03-23T08:56:34;99020.94;;;8.84;75.11
12666;BME280;58531;59.050;17.416;2023-03-23T08:59:01;99021.22;;;8.72;73.98
12666;BME280;58531;59.050;17.416;2023-03-23T09:01:29;99014.09;;;8.63;75.25
12666;BME280;58531;59.050;17.416;2023-03-23T09:03:57;99002.31;;;8.70;75.25
12666;BME280;58531;59.050;17.416;2023-03-23T09:06:25;99010.94;;;8.65;74.42
12666;BME280;58531;59.050;17.416;2023-03-23T09:08:53;99014.44;;;8.71;76.91
12666;BME280;58531;59.050;17.416;2023-03-23T09:11:21;99010.38;;;8.90;77.15
12666;BME280;58531;59.050;17.416;2023-03-23T09:13:48;99009.72;;;8.95;75.61
12666;BME280;58531;59.050;17.416;2023-03-23T09:16:15;99008.16;;;8.88;75.33
12666;BME280;58531;59.050;17.416;2023-03-23T09:18:44;99007.63;;;8.84;77.99
12666;BME280;58531;59.050;17.416;2023-03-23T09:21:11;99011.09;;;8.90;78.14
12666;BME280;58531;59.050;17.416;2023-03-23T09:23:39;98994.56;;;9.01;75.66
12666;BME280;58531;59.050;17.416;2023-03-23T09:26:10;99000.94;;;8.89;74.81
12666;BME280;58531;59.050;17.416;2023-03-23T09:28:36;99001.22;;;8.91;75.54
12666;BME280;58531;59.050;17.416;2023-03-23T09:31:04;99001.84;;;8.86;74.12
12666;BME280;58531;59.050;17.416;2023-03-23T09:33:31;99004.47;;;9.00;74.52
12666;BME280;58531;59.050;17.416;2023-03-23T09:36:00;98996.41;;;8.95;73.29
12666;BME280;58531;59.050;17.416;2023-03-23T09:38:30;98984.28;;;8.94;74.84
12666;BME280;58531;59.050;17.416;2023-03-23T09:41:04;98987.38;;;9.07;74.71
12666;BME280;58531;59.050;17.416;2023-03-23T09:43:54;98989.94;;;9.16;74.61
12666;BME280;58531;59.050;17.416;2023-03-23T09:46:36;98981.28;;;9.21;74.66
12666;BME280;58531;59.050;17.416;2023-03-23T09:49:10;98986.50;;;9.30;74.51
12666;BME280;58531;59.050;17.416;2023-03-23T09:51:45;98980.31;;;9.38;75.37
12666;BME280;58531;59.050;17.416;2023-03-23T09:54:19;98971.72;;;9.48;74.50
12666;BME280;58531;59.050;17.416;2023-03-23T09:56:47;98975.44;;;9.56;73.68
12666;BME280;58531;59.050;17.416;2023-03-23T09:59:20;98973.41;;;9.66;72.32
12666;BME280;58531;59.050;17.416;2023-03-23T10:01:52;98968.78;;;9.66;72.63
12666;BME280;58531;59.050;17.416;2023-03-23T10:04:34;98962.91;;;9.62;69.75
12666;BME280;58531;59.050;17.416;2023-03-23T10:07:10;98961.44;;;9.61;72.23
12666;BME280;58531;59.050;17.416;2023-03-23T10:09:40;98958.66;;;9.50;72.38
12666;BME280;58531;59.050;17.416;2023-03-23T10:12:16;98963.19;;;9.44;72.77
12666;BME280;58531;59.050;17.416;2023-03-23T10:15:00;98958.00;;;9.36;72.85
12666;BME280;58531;59.050;17.416;2023-03-23T10:17:30;98967.44;;;9.56;72.10
12666;BME280;58531;59.050;17.416;2023-03-23T10:20:13;98963.78;;;9.74;73.76
12666;BME280;58531;59.050;17.416;2023-03-23T10:22:48;98958.06;;;9.61;70.86
12666;BME280;58531;59.050;17.416;2023-03-23T10:25:20;98960.50;;;9.44;71.65
12666;BME280;58531;59.050;17.416;2023-03-23T10:27:52;98955.59;;;9.57;72.04
12666;BME280;58531;59.050;17.416;2023-03-23T10:30:25;98961.78;;;9.69;72.11
12666;BME280;58531;59.050;17.416;2023-03-23T10:32:57;98952.66;;;9.75;71.97
12666;BME280;58531;59.050;17.416;2023-03-23T10:35:29;98953.03;;;9.88;72.09
12666;BME280;58531;59.050;17.416;2023-03-23T10:38:03;98952.69;;;9.81;72.29
12666;BME280;58531;59.050;17.416;2023-03-23T10:40:31;98948.72;;;9.71;71.71
12666;BME280;58531;59.050;17.416;2023-03-23T10:42:59;98940.41;;;9.63;71.37
12666;BME280;58531;59.050;17.416;2023-03-23T10:45:28;98938.94;;;9.62;70.15
12666;BME280;58531;59.050;17.416;2023-03-23T10:48:00;98939.19;;;9.64;69.91
12666;BME280;58531;59.050;17.416;2023-03-23T10:50:35;98940.66;;;9.65;69.35
12666;BME280;58531;59.050;17.416;2023-03-23T10:53:13;98939.72;;;9.68;70.73
12666;BME280;58531;59.050;17.416;2023-03-23T10:55:42;98934.78;;;9.81;70.37
12666;BME280;58531;59.050;17.416;2023-03-23T10:58:12;98930.06;;;9.96;69.28
12666;BME280;58531;59.050;17.416;2023-03-23T11:00:46;98925.56;;;10.02;68.47
12666;BME280;58531;59.050;17.416;2023-03-23T11:03:25;98933.13;;;10.09;67.91
12666;BME280;58531;59.050;17.416;2023-03-23T11:05:56;98934.97;;;10.23;67.82
12666;BME280;58531;59.050;17.416;2023-03-23T11:08:27;98925.38;;;10.37;66.15
12666;BME280;58531;59.050;17.416;2023-03-23T11:10:58;98926.38;;;10.39;66.11
12666;BME280;58531;59.050;17.416;2023-03-23T11:13:30;98923.94;;;10.72;66.91
12666;BME280;58531;59.050;17.416;2023-03-23T11:15:58;98919.47;;;11.00;65.44
12666;BME280;58531;59.050;17.416;2023-03-23T11:18:33;98924.34;;;10.96;63.74
12666;BME280;58531;59.050;17.416;2023-03-23T11:21:02;98922.66;;;10.98;65.26
12666;BME280;58531;59.050;17.416;2023-03-23T11:23:34;98914.03;;;10.78;63.32
12666;BME280;58531;59.050;17.416;2023-03-23T11:26:11;98925.50;;;10.89;63.58
12666;BME280;58531;59.050;17.416;2023-03-23T11:28:44;98923.22;;;11.13;64.34
12666;BME280;58531;59.050;17.416;2023-03-23T11:31:13;98921.63;;;11.38;63.87
12666;BME280;58531;59.050;17.416;2023-03-23T11:33:52;98908.09;;;11.58;62.15
12666;BME280;58531;59.050;17.416;2023-03-23T11:36:33;98905.00;;;11.76;61.66
12666;BME280;58531;59.050;17.416;2023-03-23T11:39:02;98904.47;;;11.61;61.25
12666;BME280;58531;59.050;17.416;2023-03-23T11:41:33;98908.88;;;11.69;60.47
12666;BME280;58531;59.050;17.416;2023-03-23T11:44:08;98906.16;;;11.58;57.71
12666;BME280;58531;59.050;17.416;2023-03-23T11:46:42;98896.38;;;11.50;60.61
12666;BME280;58531;59.050;17.416;2023-03-23T11:49:22;98901.09;;;11.71;59.62
12666;BME280;58531;59.050;17.416;2023-03-23T11:51:58;98889.22;;;11.88;57.95
12666;BME280;58531;59.050;17.416;2023-03-23T11:54:34;98886.06;;;11.95;55.96
12666;BME280;58531;59.050;17.416;2023-03-23T11:57:06;98887.78;;;12.20;58.00
12666;BME280;58531;59.050;17.416;2023-03-23T11:59:36;98873.13;;;12.54;57.76
12666;BME280;58531;59.050;17.416;2023-03-23T12:02:19;98873.09;;;12.76;55.47
12666;BME280;58531;59.050;17.416;2023-03-23T12:04:58;98869.69;;;12.92;53.67
12666;BME280;58531;59.050;17.416;2023-03-23T12:07:52;98866.69;;;13.12;56.00
12666;BME280;58531;59.050;17.416;2023-03-23T12:10:29;98873.78;;;13.09;54.34
12666;BME280;58531;59.050;17.416;2023-03-23T12:13:23;98875.00;;;13.08;55.23
12666;BME280;58531;59.050;17.416;2023-03-23T12:16:02;98870.97;;;13.31;54.72
12666;BME280;58531;59.050;17.416;2023-03-23T12:18:44;98878.06;;;13.29;53.09
12666;BME280;58531;59.050;17.416;2023-03-23T12:21:19;98872.00;;;13.23;51.79
12666;BME280;58531;59.050;17.416;2023-03-23T12:23:59;98866.63;;;13.28;53.12
12666;BME280;58531;59.050;17.416;2023-03-23T12:26:34;98865.16;;;13.33;52.12
12666;BME280;58531;59.050;17.416;2023-03-23T12:29:21;98869.47;;;13.47;52.76
12666;BME280;58531;59.050;17.416;2023-03-23T12:32:13;98862.38;;;13.49;50.60
12666;BME280;58531;59.050;17.416;2023-03-23T12:34:49;98861.72;;;13.38;50.71
12666;BME280;58531;59.050;17.416;2023-03-23T12:37:29;98850.75;;;13.30;50.28
12666;BME280;58531;59.050;17.416;2023-03-23T12:40:09;98847.19;;;13.17;50.89
12666;BME280;58531;59.050;17.416;2023-03-23T12:42:54;98846.69;;;13.13;51.28
12666;BME280;58531;59.050;17.416;2023-03-23T12:45:39;98843.78;;;13.11;51.27
12666;BME280;58531;59.050;17.416;2023-03-23T12:48:10;98841.03;;;13.27;52.06
12666;BME280;58531;59.050;17.416;2023-03-23T12:50:41;98844.25;;;13.15;52.24
12666;BME280;58531;59.050;17.416;2023-03-23T12:53:12;98837.03;;;12.99;52.67
12666;BME280;58531;59.050;17.416;2023-03-23T12:55:45;98830.47;;;12.89;51.68
12666;BME280;58531;59.050;17.416;2023-03-23T12:58:17;98832.13;;;13.03;52.61
12666;BME280;58531;59.050;17.416;2023-03-23T13:00:56;98823.94;;;13.30;54.06
12666;BME280;58531;59.050;17.416;2023-03-23T13:03:27;98826.47;;;13.58;53.12
12666;BME280;58531;59.050;17.416;2023-03-23T13:06:02;98834.97;;;13.67;52.85
12666;BME280;58531;59.050;17.416;2023-03-23T13:08:36;98827.16;;;13.69;52.86
12666;BME280;58531;59.050;17.416;2023-03-23T13:11:09;98822.03;;;13.66;53.43
12666;BME280;58531;59.050;17.416;2023-03-23T13:13:45;98830.63;;;13.59;52.00
12666;BME280;58531;59.050;17.416;2023-03-23T13:16:22;98819.94;;;13.53;52.79